sensor_id;sensor_type;location;lat;lon;timestamp;temperature;humidity
298;DHT22;133;49.626;9.680;2022-07-19T00:01:20;19.90;59.80
298;DHT22;133;49.626;9.680;2022-07-19T00:03:45;19.80;59.90
298;DHT22;133;49.626;9.680;2022-07-19T00:06:11;19.80;60.30
298;DHT22;133;49.626;9.680;2022-07-19T00:08:36;19.80;60.40
298;DHT22;133;49.626;9.680;2022-07-19T00:11:02;19.70;60.10
298;DHT22;133;49.626;9.680;2022-07-19T00:13:28;19.70;60.20
298;DHT22;133;49.626;9.680;2022-07-19T00:15:54;19.70;60.30
298;DHT22;133;49.626;9.680;2022-07-19T00:18:20;19.60;60.40
298;DHT22;133;49.626;9.680;2022-07-19T00:20:45;19.50;60.70
298;DHT22;133;49.626;9.680;2022-07-19T00:23:11;19.50;60.80
298;DHT22;133;49.626;9.680;2022-07-19T00:25:36;19.40;61.00
298;DHT22;133;49.626;9.680;2022-07-19T00:28:02;19.40;61.40
298;DHT22;133;49.626;9.680;2022-07-19T00:30:28;19.30;61.40
298;DHT22;133;49.626;9.680;2022-07-19T00:32:53;19.30;62.00
298;DHT22;133;49.626;9.680;2022-07-19T00:35:19;19.20;61.40
298;DHT22;133;49.626;9.680;2022-07-19T00:37:45;19.20;61.50
298;DHT22;133;49.626;9.680;2022-07-19T00:40:11;19.20;62.10
298;DHT22;133;49.626;9.680;2022-07-19T00:42:37;19.10;62.30
298;DHT22;133;49.626;9.680;2022-07-19T00:45:04;19.00;62.40
298;DHT22;133;49.626;9.680;2022-07-19T00:47:30;19.00;62.50
298;DHT22;133;49.626;9.680;2022-07-19T00:49:56;19.00;62.80
298;DHT22;133;49.626;9.680;2022-07-19T00:52:22;19.00;63.00
298;DHT22;133;49.626;9.680;2022-07-19T00:54:51;18.90;63.30
298;DHT22;133;49.626;9.680;2022-07-19T00:57:18;18.80;63.30
298;DHT22;133;49.626;9.680;2022-07-19T00:59:44;18.80;63.30
298;DHT22;133;49.626;9.680;2022-07-19T01:02:12;18.80;63.40
298;DHT22;133;49.626;9.680;2022-07-19T01:04:38;18.80;63.50
298;DHT22;133;49.626;9.680;2022-07-19T01:07:03;18.70;63.90
298;DHT22;133;49.626;9.680;2022-07-19T01:09:29;18.70;63.60
298;DHT22;133;49.626;9.680;2022-07-19T01:11:56;18.60;64.50
298;DHT22;133;49.626;9.680;2022-07-19T01:14:22;18.60;64.20
298;DHT22;133;49.626;9.680;2022-07-19T01:16:48;18.60;64.90
298;DHT22;133;49.626;9.680;2022-07-19T01:19:14;18.60;64.30
298;DHT22;133;49.626;9.680;2022-07-19T01:21:40;18.60;64.40
298;DHT22;133;49.626;9.680;2022-07-19T01:24:06;18.50;64.30
298;DHT22;133;49.626;9.680;2022-07-19T01:26:31;18.50;64.60
298;DHT22;133;49.626;9.680;2022-07-19T01:28:57;18.40;65.00
298;DHT22;133;49.626;9.680;2022-07-19T01:31:23;18.30;65.50
298;DHT22;133;49.626;9.680;2022-07-19T01:33:48;18.30;65.70
298;DHT22;133;49.626;9.680;2022-07-19T01:36:14;18.30;65.70
298;DHT22;133;49.626;9.680;2022-07-19T01:38:40;18.20;66.30
298;DHT22;133;49.626;9.680;2022-07-19T01:41:06;18.10;66.10
298;DHT22;133;49.626;9.680;2022-07-19T01:43:32;18.10;66.10
298;DHT22;133;49.626;9.680;2022-07-19T01:45:58;18.10;66.20
298;DHT22;133;49.626;9.680;2022-07-19T01:48:24;18.00;66.30
298;DHT22;133;49.626;9.680;2022-07-19T01:50:50;17.90;67.00
298;DHT22;133;49.626;9.680;2022-07-19T01:53:16;17.90;66.90
298;DHT22;133;49.626;9.680;2022-07-19T01:55:42;17.80;66.90
298;DHT22;133;49.626;9.680;2022-07-19T01:58:07;17.80;67.10
298;DHT22;133;49.626;9.680;2022-07-19T02:00:33;17.80;67.00
298;DHT22;133;49.626;9.680;2022-07-19T02:02:59;17.80;67.70
298;DHT22;133;49.626;9.680;2022-07-19T02:05:24;17.70;67.50
298;DHT22;133;49.626;9.680;2022-07-19T02:07:50;17.80;67.50
298;DHT22;133;49.626;9.680;2022-07-19T02:10:17;17.70;67.20
298;DHT22;133;49.626;9.680;2022-07-19T02:12:43;17.70;67.40
298;DHT22;133;49.626;9.680;2022-07-19T02:15:09;17.60;67.80
298;DHT22;133;49.626;9.680;2022-07-19T02:17:34;17.60;67.40
298;DHT22;133;49.626;9.680;2022-07-19T02:20:00;17.50;68.20
298;DHT22;133;49.626;9.680;2022-07-19T02:22:26;17.50;68.10
298;DHT22;133;49.626;9.680;2022-07-19T02:24:52;17.40;68.30
298;DHT22;133;49.626;9.680;2022-07-19T02:27:17;17.40;68.50
298;DHT22;133;49.626;9.680;2022-07-19T02:29:43;17.30;68.40
298;DHT22;133;49.626;9.680;2022-07-19T02:32:09;17.30;69.00
298;DHT22;133;49.626;9.680;2022-07-19T02:34:34;17.30;68.60
298;DHT22;133;49.626;9.680;2022-07-19T02:37:01;17.30;68.80
298;DHT22;133;49.626;9.680;2022-07-19T02:39:27;17.30;68.80
298;DHT22;133;49.626;9.680;2022-07-19T02:41:52;17.30;69.10
298;DHT22;133;49.626;9.680;2022-07-19T02:44:18;17.30;69.50
298;DHT22;133;49.626;9.680;2022-07-19T02:46:44;17.20;69.40
298;DHT22;133;49.626;9.680;2022-07-19T02:49:09;17.10;69.60
298;DHT22;133;49.626;9.680;2022-07-19T02:51:35;17.10;69.90
298;DHT22;133;49.626;9.680;2022-07-19T02:54:00;17.00;70.00
298;DHT22;133;49.626;9.680;2022-07-19T02:56:26;17.00;70.10
298;DHT22;133;49.626;9.680;2022-07-19T02:58:52;17.00;70.50
298;DHT22;133;49.626;9.680;2022-07-19T03:01:17;16.90;69.80
298;DHT22;133;49.626;9.680;2022-07-19T03:03:43;16.90;70.10
298;DHT22;133;49.626;9.680;2022-07-19T03:06:09;16.90;70.30
298;DHT22;133;49.626;9.680;2022-07-19T03:08:35;16.80;70.50
298;DHT22;133;49.626;9.680;2022-07-19T03:11:00;16.80;71.10
298;DHT22;133;49.626;9.680;2022-07-19T03:13:26;16.70;70.90
298;DHT22;133;49.626;9.680;2022-07-19T03:15:51;16.70;70.40
298;DHT22;133;49.626;9.680;2022-07-19T03:18:17;16.60;70.10
298;DHT22;133;49.626;9.680;2022-07-19T03:20:43;16.60;70.80
298;DHT22;133;49.626;9.680;2022-07-19T03:23:08;16.60;70.90
298;DHT22;133;49.626;9.680;2022-07-19T03:25:34;16.60;71.60
298;DHT22;133;49.626;9.680;2022-07-19T03:27:59;16.50;71.60
298;DHT22;133;49.626;9.680;2022-07-19T03:30:25;16.50;71.60
298;DHT22;133;49.626;9.680;2022-07-19T03:32:51;16.50;71.90
298;DHT22;133;49.626;9.680;2022-07-19T03:35:18;16.40;72.00
298;DHT22;133;49.626;9.680;2022-07-19T03:37:47;16.50;71.80
298;DHT22;133;49.626;9.680;2022-07-19T03:40:13;16.50;71.00
298;DHT22;133;49.626;9.680;2022-07-19T03:42:39;16.40;71.50
298;DHT22;133;49.626;9.680;2022-07-19T03:45:05;16.40;71.70
298;DHT22;133;49.626;9.680;2022-07-19T03:47:30;16.40;71.60
298;DHT22;133;49.626;9.680;2022-07-19T03:49:56;16.40;71.40
298;DHT22;133;49.626;9.680;2022-07-19T03:52:23;16.40;71.70
298;DHT22;133;49.626;9.680;2022-07-19T03:54:49;16.40;72.00
298;DHT22;133;49.626;9.680;2022-07-19T03:57:14;16.30;71.30
298;DHT22;133;49.626;9.680;2022-07-19T03:59:40;16.30;70.90
298;DHT22;133;49.626;9.680;2022-07-19T04:02:05;16.20;71.60
298;DHT22;133;49.626;9.680;2022-07-19T04:04:31;16.20;72.50
298;DHT22;133;49.626;9.680;2022-07-19T04:06:57;16.10;71.00
298;DHT22;133;49.626;9.680;2022-07-19T04:09:23;16.10;71.40
298;DHT22;133;49.626;9.680;2022-07-19T04:11:48;16.00;72.20
298;DHT22;133;49.626;9.680;2022-07-19T04:14:14;16.00;72.80
298;DHT22;133;49.626;9.680;2022-07-19T04:16:40;16.00;73.10
298;DHT22;133;49.626;9.680;2022-07-19T04:19:05;15.90;73.40
298;DHT22;133;49.626;9.680;2022-07-19T04:21:31;15.90;73.60
298;DHT22;133;49.626;9.680;2022-07-19T04:23:57;15.90;73.90
298;DHT22;133;49.626;9.680;2022-07-19T04:26:23;15.90;73.90
298;DHT22;133;49.626;9.680;2022-07-19T04:28:48;15.90;73.90
298;DHT22;133;49.626;9.680;2022-07-19T04:31:14;15.90;73.90
298;DHT22;133;49.626;9.680;2022-07-19T04:33:40;15.90;74.40
298;DHT22;133;49.626;9.680;2022-07-19T04:36:06;15.90;74.40
298;DHT22;133;49.626;9.680;2022-07-19T04:38:32;16.00;74.20
298;DHT22;133;49.626;9.680;2022-07-19T04:40:57;16.00;74.10
298;DHT22;133;49.626;9.680;2022-07-19T04:43:23;16.10;74.10
298;DHT22;133;49.626;9.680;2022-07-19T04:45:49;16.10;73.70
298;DHT22;133;49.626;9.680;2022-07-19T04:48:14;16.20;73.80
298;DHT22;133;49.626;9.680;2022-07-19T04:50:40;16.20;73.80
298;DHT22;133;49.626;9.680;2022-07-19T04:53:07;16.30;73.70
298;DHT22;133;49.626;9.680;2022-07-19T04:55:33;16.30;74.50
298;DHT22;133;49.626;9.680;2022-07-19T04:57:58;16.30;74.70
298;DHT22;133;49.626;9.680;2022-07-19T05:00:24;16.40;74.30
298;DHT22;133;49.626;9.680;2022-07-19T05:02:52;16.40;74.00
298;DHT22;133;49.626;9.680;2022-07-19T05:05:18;16.50;73.70
298;DHT22;133;49.626;9.680;2022-07-19T05:07:44;16.50;73.60
298;DHT22;133;49.626;9.680;2022-07-19T05:10:10;16.60;73.30
298;DHT22;133;49.626;9.680;2022-07-19T05:12:37;16.60;73.20
298;DHT22;133;49.626;9.680;2022-07-19T05:15:04;16.60;73.10
298;DHT22;133;49.626;9.680;2022-07-19T05:17:30;16.60;73.00
298;DHT22;133;49.626;9.680;2022-07-19T05:19:55;16.70;73.10
298;DHT22;133;49.626;9.680;2022-07-19T05:22:21;16.80;73.00
298;DHT22;133;49.626;9.680;2022-07-19T05:24:49;16.80;72.90
298;DHT22;133;49.626;9.680;2022-07-19T05:27:15;16.90;72.60
298;DHT22;133;49.626;9.680;2022-07-19T05:29:40;17.00;72.40
298;DHT22;133;49.626;9.680;2022-07-19T05:32:06;17.00;72.20
298;DHT22;133;49.626;9.680;2022-07-19T05:34:32;17.10;72.00
298;DHT22;133;49.626;9.680;2022-07-19T05:36:57;17.20;72.00
298;DHT22;133;49.626;9.680;2022-07-19T05:39:23;17.20;71.50
298;DHT22;133;49.626;9.680;2022-07-19T05:41:48;17.20;71.80
298;DHT22;133;49.626;9.680;2022-07-19T05:44:14;17.30;72.00
298;DHT22;133;49.626;9.680;2022-07-19T05:46:40;17.40;72.00
298;DHT22;133;49.626;9.680;2022-07-19T05:49:09;17.50;71.10
298;DHT22;133;49.626;9.680;2022-07-19T05:51:35;17.60;70.90
298;DHT22;133;49.626;9.680;2022-07-19T05:54:01;17.70;70.70
298;DHT22;133;49.626;9.680;2022-07-19T05:56:28;17.80;70.30
298;DHT22;133;49.626;9.680;2022-07-19T05:58:54;17.80;70.10
298;DHT22;133;49.626;9.680;2022-07-19T06:01:19;17.90;70.00
298;DHT22;133;49.626;9.680;2022-07-19T06:03:56;17.90;69.80
298;DHT22;133;49.626;9.680;2022-07-19T06:06:23;18.10;69.60
298;DHT22;133;49.626;9.680;2022-07-19T06:08:49;18.10;69.40
298;DHT22;133;49.626;9.680;2022-07-19T06:11:16;18.20;69.20
298;DHT22;133;49.626;9.680;2022-07-19T06:13:43;18.30;69.00
298;DHT22;133;49.626;9.680;2022-07-19T06:16:08;18.40;68.60
298;DHT22;133;49.626;9.680;2022-07-19T06:18:35;18.50;67.90
298;DHT22;133;49.626;9.680;2022-07-19T06:21:09;18.60;67.50
298;DHT22;133;49.626;9.680;2022-07-19T06:23:36;18.70;66.20
298;DHT22;133;49.626;9.680;2022-07-19T06:26:02;18.70;65.90
298;DHT22;133;49.626;9.680;2022-07-19T06:28:28;18.80;66.10
298;DHT22;133;49.626;9.680;2022-07-19T06:30:53;18.90;65.70
298;DHT22;133;49.626;9.680;2022-07-19T06:33:19;19.10;65.40
298;DHT22;133;49.626;9.680;2022-07-19T06:35:45;19.20;65.80
298;DHT22;133;49.626;9.680;2022-07-19T06:38:11;19.20;65.90
298;DHT22;133;49.626;9.680;2022-07-19T06:40:37;19.40;65.40
298;DHT22;133;49.626;9.680;2022-07-19T06:43:02;19.40;65.10
298;DHT22;133;49.626;9.680;2022-07-19T06:45:28;19.50;64.70
298;DHT22;133;49.626;9.680;2022-07-19T06:47:53;19.60;64.80
298;DHT22;133;49.626;9.680;2022-07-19T06:50:20;19.70;64.50
298;DHT22;133;49.626;9.680;2022-07-19T06:52:45;19.80;64.20
298;DHT22;133;49.626;9.680;2022-07-19T06:55:11;19.90;64.00
298;DHT22;133;49.626;9.680;2022-07-19T06:57:37;20.10;63.20
298;DHT22;133;49.626;9.680;2022-07-19T07:00:04;20.20;62.90
298;DHT22;133;49.626;9.680;2022-07-19T07:02:31;20.20;63.00
298;DHT22;133;49.626;9.680;2022-07-19T07:04:57;20.30;62.70
298;DHT22;133;49.626;9.680;2022-07-19T07:07:22;20.30;62.70
298;DHT22;133;49.626;9.680;2022-07-19T07:09:48;20.40;62.70
298;DHT22;133;49.626;9.680;2022-07-19T07:12:13;20.50;62.60
298;DHT22;133;49.626;9.680;2022-07-19T07:14:39;20.60;62.50
298;DHT22;133;49.626;9.680;2022-07-19T07:17:05;20.70;62.60
298;DHT22;133;49.626;9.680;2022-07-19T07:19:30;20.80;62.40
298;DHT22;133;49.626;9.680;2022-07-19T07:21:56;21.00;61.70
298;DHT22;133;49.626;9.680;2022-07-19T07:24:25;21.00;61.90
298;DHT22;133;49.626;9.680;2022-07-19T07:26:51;21.20;61.90
298;DHT22;133;49.626;9.680;2022-07-19T07:29:16;21.30;61.70
298;DHT22;133;49.626;9.680;2022-07-19T07:31:42;21.40;61.50
298;DHT22;133;49.626;9.680;2022-07-19T07:34:08;21.60;61.30
298;DHT22;133;49.626;9.680;2022-07-19T07:36:33;21.60;61.50
298;DHT22;133;49.626;9.680;2022-07-19T07:38:59;21.80;61.30
298;DHT22;133;49.626;9.680;2022-07-19T07:41:24;21.90;60.90
298;DHT22;133;49.626;9.680;2022-07-19T07:43:50;22.10;60.30
298;DHT22;133;49.626;9.680;2022-07-19T07:46:15;22.20;60.10
298;DHT22;133;49.626;9.680;2022-07-19T07:48:41;22.40;59.70
298;DHT22;133;49.626;9.680;2022-07-19T07:51:07;22.50;59.50
298;DHT22;133;49.626;9.680;2022-07-19T07:53:33;22.60;60.60
298;DHT22;133;49.626;9.680;2022-07-19T07:55:58;22.70;60.20
298;DHT22;133;49.626;9.680;2022-07-19T07:58:24;22.70;61.70
298;DHT22;133;49.626;9.680;2022-07-19T08:00:50;22.80;61.40
298;DHT22;133;49.626;9.680;2022-07-19T08:03:15;22.90;60.80
298;DHT22;133;49.626;9.680;2022-07-19T08:05:43;23.00;61.10
298;DHT22;133;49.626;9.680;2022-07-19T08:08:13;23.20;59.70
298;DHT22;133;49.626;9.680;2022-07-19T08:10:39;23.30;59.60
298;DHT22;133;49.626;9.680;2022-07-19T08:13:04;23.50;58.90
298;DHT22;133;49.626;9.680;2022-07-19T08:15:30;23.70;59.00
298;DHT22;133;49.626;9.680;2022-07-19T08:17:56;23.90;59.00
298;DHT22;133;49.626;9.680;2022-07-19T08:20:21;24.00;58.30
298;DHT22;133;49.626;9.680;2022-07-19T08:22:47;24.20;57.70
298;DHT22;133;49.626;9.680;2022-07-19T08:25:12;24.30;57.30
298;DHT22;133;49.626;9.680;2022-07-19T08:27:45;24.60;57.10
298;DHT22;133;49.626;9.680;2022-07-19T08:30:11;24.80;57.30
298;DHT22;133;49.626;9.680;2022-07-19T08:32:38;24.90;57.10
298;DHT22;133;49.626;9.680;2022-07-19T08:35:06;25.10;56.40
298;DHT22;133;49.626;9.680;2022-07-19T08:37:32;25.30;56.00
298;DHT22;133;49.626;9.680;2022-07-19T08:39:57;25.50;55.50
298;DHT22;133;49.626;9.680;2022-07-19T08:42:23;25.80;55.50
298;DHT22;133;49.626;9.680;2022-07-19T08:44:52;25.90;53.70
298;DHT22;133;49.626;9.680;2022-07-19T08:47:19;26.00;54.50
298;DHT22;133;49.626;9.680;2022-07-19T08:49:45;26.20;53.10
298;DHT22;133;49.626;9.680;2022-07-19T08:52:11;26.40;53.30
298;DHT22;133;49.626;9.680;2022-07-19T08:54:38;26.60;52.50
298;DHT22;133;49.626;9.680;2022-07-19T08:57:05;26.80;52.10
298;DHT22;133;49.626;9.680;2022-07-19T08:59:49;27.10;51.80
298;DHT22;133;49.626;9.680;2022-07-19T09:02:15;27.50;50.30
298;DHT22;133;49.626;9.680;2022-07-19T09:04:41;28.00;50.00
298;DHT22;133;49.626;9.680;2022-07-19T09:07:07;28.70;49.00
298;DHT22;133;49.626;9.680;2022-07-19T09:09:34;30.50;46.00
298;DHT22;133;49.626;9.680;2022-07-19T09:12:04;32.20;42.40
298;DHT22;133;49.626;9.680;2022-07-19T09:14:35;34.20;40.20
298;DHT22;133;49.626;9.680;2022-07-19T09:19:38;37.40;35.70
298;DHT22;133;49.626;9.680;2022-07-19T09:22:09;39.00;34.60
298;DHT22;133;49.626;9.680;2022-07-19T09:24:38;39.80;33.30
298;DHT22;133;49.626;9.680;2022-07-19T09:27:06;41.00;32.20
298;DHT22;133;49.626;9.680;2022-07-19T09:29:37;41.40;31.80
298;DHT22;133;49.626;9.680;2022-07-19T09:32:24;42.20;31.40
298;DHT22;133;49.626;9.680;2022-07-19T09:37:23;43.30;30.50
298;DHT22;133;49.626;9.680;2022-07-19T09:39:55;44.10;29.50
298;DHT22;133;49.626;9.680;2022-07-19T09:42:23;44.70;29.70
298;DHT22;133;49.626;9.680;2022-07-19T09:45:00;45.40;29.10
298;DHT22;133;49.626;9.680;2022-07-19T09:47:37;45.30;28.30
298;DHT22;133;49.626;9.680;2022-07-19T09:50:09;45.60;28.30
298;DHT22;133;49.626;9.680;2022-07-19T09:52:36;46.10;28.40
298;DHT22;133;49.626;9.680;2022-07-19T09:55:07;46.50;28.00
298;DHT22;133;49.626;9.680;2022-07-19T09:57:39;46.50;28.00
298;DHT22;133;49.626;9.680;2022-07-19T10:00:06;46.80;27.20
298;DHT22;133;49.626;9.680;2022-07-19T10:02:36;46.80;27.30
298;DHT22;133;49.626;9.680;2022-07-19T10:05:06;46.10;27.30
298;DHT22;133;49.626;9.680;2022-07-19T10:07:33;46.40;27.40
298;DHT22;133;49.626;9.680;2022-07-19T10:10:04;46.60;27.60
298;DHT22;133;49.626;9.680;2022-07-19T10:12:30;46.80;27.40
298;DHT22;133;49.626;9.680;2022-07-19T10:14:55;46.70;26.80
298;DHT22;133;49.626;9.680;2022-07-19T10:20:25;46.80;26.80
298;DHT22;133;49.626;9.680;2022-07-19T10:22:51;46.90;27.30
298;DHT22;133;49.626;9.680;2022-07-19T10:25:17;47.00;26.30
298;DHT22;133;49.626;9.680;2022-07-19T10:27:49;46.40;27.00
298;DHT22;133;49.626;9.680;2022-07-19T10:30:20;46.40;26.80
298;DHT22;133;49.626;9.680;2022-07-19T10:32:49;46.50;26.60
298;DHT22;133;49.626;9.680;2022-07-19T10:35:17;46.50;26.90
298;DHT22;133;49.626;9.680;2022-07-19T10:37:45;46.70;26.60
298;DHT22;133;49.626;9.680;2022-07-19T10:40:11;46.60;26.50
298;DHT22;133;49.626;9.680;2022-07-19T10:42:47;46.20;26.80
298;DHT22;133;49.626;9.680;2022-07-19T10:45:24;46.60;26.50
298;DHT22;133;49.626;9.680;2022-07-19T10:47:57;46.50;25.70
298;DHT22;133;49.626;9.680;2022-07-19T10:50:42;46.50;25.90
298;DHT22;133;49.626;9.680;2022-07-19T10:53:08;46.90;26.00
298;DHT22;133;49.626;9.680;2022-07-19T10:55:35;46.80;25.60
298;DHT22;133;49.626;9.680;2022-07-19T10:58:11;46.50;25.90
298;DHT22;133;49.626;9.680;2022-07-19T11:00:45;46.80;25.70
298;DHT22;133;49.626;9.680;2022-07-19T11:11:13;46.00;26.10
298;DHT22;133;49.626;9.680;2022-07-19T11:13:44;45.60;25.30
298;DHT22;133;49.626;9.680;2022-07-19T11:16:11;44.80;25.40
298;DHT22;133;49.626;9.680;2022-07-19T11:18:36;44.20;26.20
298;DHT22;133;49.626;9.680;2022-07-19T11:21:04;45.00;26.20
298;DHT22;133;49.626;9.680;2022-07-19T11:23:35;45.20;26.10
298;DHT22;133;49.626;9.680;2022-07-19T11:26:18;45.40;25.90
298;DHT22;133;49.626;9.680;2022-07-19T11:28:47;45.60;25.60
298;DHT22;133;49.626;9.680;2022-07-19T11:31:17;45.80;25.50
298;DHT22;133;49.626;9.680;2022-07-19T11:33:44;45.70;25.60
298;DHT22;133;49.626;9.680;2022-07-19T11:36:10;46.10;25.50
298;DHT22;133;49.626;9.680;2022-07-19T11:38:45;46.20;25.20
298;DHT22;133;49.626;9.680;2022-07-19T11:41:18;46.20;25.40
298;DHT22;133;49.626;9.680;2022-07-19T11:43:58;46.60;24.90
298;DHT22;133;49.626;9.680;2022-07-19T11:46:29;46.40;25.30
298;DHT22;133;49.626;9.680;2022-07-19T11:48:57;46.70;24.90
298;DHT22;133;49.626;9.680;2022-07-19T11:51:23;46.90;24.80
298;DHT22;133;49.626;9.680;2022-07-19T11:53:51;46.40;24.30
298;DHT22;133;49.626;9.680;2022-07-19T11:56:21;46.40;25.10
298;DHT22;133;49.626;9.680;2022-07-19T11:58:50;45.90;24.90
298;DHT22;133;49.626;9.680;2022-07-19T12:01:29;46.00;25.30
298;DHT22;133;49.626;9.680;2022-07-19T12:04:01;46.50;24.80
298;DHT22;133;49.626;9.680;2022-07-19T12:06:43;46.30;25.30
298;DHT22;133;49.626;9.680;2022-07-19T12:09:12;46.20;24.70
298;DHT22;133;49.626;9.680;2022-07-19T12:11:41;46.40;24.60
298;DHT22;133;49.626;9.680;2022-07-19T12:14:21;46.70;24.70
298;DHT22;133;49.626;9.680;2022-07-19T12:17:19;46.70;25.00
298;DHT22;133;49.626;9.680;2022-07-19T12:24:56;47.50;24.90
298;DHT22;133;49.626;9.680;2022-07-19T12:27:22;47.80;24.70
298;DHT22;133;49.626;9.680;2022-07-19T12:29:56;47.70;24.40
298;DHT22;133;49.626;9.680;2022-07-19T12:32:39;47.00;25.00
298;DHT22;133;49.626;9.680;2022-07-19T12:35:13;47.10;25.30
298;DHT22;133;49.626;9.680;2022-07-19T12:37:41;47.30;24.20
298;DHT22;133;49.626;9.680;2022-07-19T12:40:13;47.60;24.30
298;DHT22;133;49.626;9.680;2022-07-19T12:45:12;47.40;24.70
298;DHT22;133;49.626;9.680;2022-07-19T12:47:37;47.60;24.90
298;DHT22;133;49.626;9.680;2022-07-19T12:50:04;48.10;24.00
298;DHT22;133;49.626;9.680;2022-07-19T12:52:30;48.30;23.70
298;DHT22;133;49.626;9.680;2022-07-19T12:54:56;48.20;23.60
298;DHT22;133;49.626;9.680;2022-07-19T12:57:21;48.10;23.90
298;DHT22;133;49.626;9.680;2022-07-19T12:59:47;48.40;23.90
298;DHT22;133;49.626;9.680;2022-07-19T13:02:17;47.60;24.10
298;DHT22;133;49.626;9.680;2022-07-19T13:04:44;47.00;24.00
298;DHT22;133;49.626;9.680;2022-07-19T13:07:11;47.30;24.50
298;DHT22;133;49.626;9.680;2022-07-19T13:09:38;47.30;24.00
298;DHT22;133;49.626;9.680;2022-07-19T13:12:05;46.60;24.60
298;DHT22;133;49.626;9.680;2022-07-19T13:14:35;46.60;24.30
298;DHT22;133;49.626;9.680;2022-07-19T13:17:03;46.70;24.60
298;DHT22;133;49.626;9.680;2022-07-19T13:19:29;45.80;24.90
298;DHT22;133;49.626;9.680;2022-07-19T13:21:54;46.30;24.90
298;DHT22;133;49.626;9.680;2022-07-19T13:24:21;46.60;24.90
298;DHT22;133;49.626;9.680;2022-07-19T13:26:47;46.80;24.60
298;DHT22;133;49.626;9.680;2022-07-19T13:29:13;46.40;25.10
298;DHT22;133;49.626;9.680;2022-07-19T13:31:39;46.30;24.60
298;DHT22;133;49.626;9.680;2022-07-19T13:34:05;46.20;25.00
298;DHT22;133;49.626;9.680;2022-07-19T13:36:31;46.30;24.90
298;DHT22;133;49.626;9.680;2022-07-19T13:38:56;46.20;24.90
298;DHT22;133;49.626;9.680;2022-07-19T13:41:22;46.00;25.20
298;DHT22;133;49.626;9.680;2022-07-19T13:43:47;45.80;24.90
298;DHT22;133;49.626;9.680;2022-07-19T13:46:13;45.50;25.30
298;DHT22;133;49.626;9.680;2022-07-19T13:48:40;45.20;25.50
298;DHT22;133;49.626;9.680;2022-07-19T13:51:07;45.00;25.60
298;DHT22;133;49.626;9.680;2022-07-19T13:53:33;45.00;25.80
298;DHT22;133;49.626;9.680;2022-07-19T13:55:58;44.70;25.70
298;DHT22;133;49.626;9.680;2022-07-19T13:58:24;44.40;26.00
298;DHT22;133;49.626;9.680;2022-07-19T14:00:49;44.00;25.90
298;DHT22;133;49.626;9.680;2022-07-19T14:03:22;44.00;26.00
298;DHT22;133;49.626;9.680;2022-07-19T14:05:48;43.70;25.70
298;DHT22;133;49.626;9.680;2022-07-19T14:08:14;43.70;26.50
298;DHT22;133;49.626;9.680;2022-07-19T14:10:41;43.80;25.90
298;DHT22;133;49.626;9.680;2022-07-19T14:13:07;43.80;26.20
298;DHT22;133;49.626;9.680;2022-07-19T14:15:33;43.80;26.70
298;DHT22;133;49.626;9.680;2022-07-19T14:17:59;43.60;26.40
298;DHT22;133;49.626;9.680;2022-07-19T14:20:26;43.60;26.30
298;DHT22;133;49.626;9.680;2022-07-19T14:22:52;43.70;26.40
298;DHT22;133;49.626;9.680;2022-07-19T14:25:18;43.70;26.20
298;DHT22;133;49.626;9.680;2022-07-19T14:27:44;43.80;26.70
298;DHT22;133;49.626;9.680;2022-07-19T14:30:10;43.80;26.10
298;DHT22;133;49.626;9.680;2022-07-19T14:32:36;43.70;25.40
298;DHT22;133;49.626;9.680;2022-07-19T14:35:02;43.60;25.50
298;DHT22;133;49.626;9.680;2022-07-19T14:37:28;43.80;26.20
298;DHT22;133;49.626;9.680;2022-07-19T14:39:53;43.60;26.00
298;DHT22;133;49.626;9.680;2022-07-19T14:42:19;43.80;26.40
298;DHT22;133;49.626;9.680;2022-07-19T14:44:49;43.80;25.60
298;DHT22;133;49.626;9.680;2022-07-19T14:47:15;43.80;25.90
298;DHT22;133;49.626;9.680;2022-07-19T14:49:45;43.80;25.90
298;DHT22;133;49.626;9.680;2022-07-19T14:52:14;43.60;25.50
298;DHT22;133;49.626;9.680;2022-07-19T14:54:40;43.10;25.90
298;DHT22;133;49.626;9.680;2022-07-19T14:57:05;43.10;26.30
298;DHT22;133;49.626;9.680;2022-07-19T14:59:34;43.40;26.00
298;DHT22;133;49.626;9.680;2022-07-19T15:02:00;43.40;25.60
298;DHT22;133;49.626;9.680;2022-07-19T15:04:26;43.40;25.90
298;DHT22;133;49.626;9.680;2022-07-19T15:06:52;43.20;25.40
298;DHT22;133;49.626;9.680;2022-07-19T15:09:18;43.10;26.20
298;DHT22;133;49.626;9.680;2022-07-19T15:11:44;43.30;26.40
298;DHT22;133;49.626;9.680;2022-07-19T15:14:10;43.10;25.90
298;DHT22;133;49.626;9.680;2022-07-19T15:16:36;43.20;26.30
298;DHT22;133;49.626;9.680;2022-07-19T15:19:02;43.30;26.50
298;DHT22;133;49.626;9.680;2022-07-19T15:21:28;43.40;26.10
298;DHT22;133;49.626;9.680;2022-07-19T15:23:54;43.40;26.10
298;DHT22;133;49.626;9.680;2022-07-19T15:26:20;43.30;26.10
298;DHT22;133;49.626;9.680;2022-07-19T15:28:47;43.30;26.10
298;DHT22;133;49.626;9.680;2022-07-19T15:31:17;43.40;26.60
298;DHT22;133;49.626;9.680;2022-07-19T15:33:51;43.40;26.40
298;DHT22;133;49.626;9.680;2022-07-19T15:36:20;42.80;25.90
298;DHT22;133;49.626;9.680;2022-07-19T15:38:55;42.60;26.30
298;DHT22;133;49.626;9.680;2022-07-19T15:41:21;42.60;26.40
298;DHT22;133;49.626;9.680;2022-07-19T15:43:52;42.20;26.20
298;DHT22;133;49.626;9.680;2022-07-19T15:46:18;42.20;26.70
298;DHT22;133;49.626;9.680;2022-07-19T15:48:44;42.10;26.20
298;DHT22;133;49.626;9.680;2022-07-19T15:51:10;42.20;26.90
298;DHT22;133;49.626;9.680;2022-07-19T15:53:37;42.30;26.70
298;DHT22;133;49.626;9.680;2022-07-19T15:56:04;42.20;26.60
298;DHT22;133;49.626;9.680;2022-07-19T15:58:30;42.10;26.30
298;DHT22;133;49.626;9.680;2022-07-19T16:00:56;42.00;26.30
298;DHT22;133;49.626;9.680;2022-07-19T16:03:22;42.10;26.70
298;DHT22;133;49.626;9.680;2022-07-19T16:05:48;42.20;26.90
298;DHT22;133;49.626;9.680;2022-07-19T16:08:13;42.30;26.80
298;DHT22;133;49.626;9.680;2022-07-19T16:10:40;42.00;26.40
298;DHT22;133;49.626;9.680;2022-07-19T16:13:32;41.80;27.10
298;DHT22;133;49.626;9.680;2022-07-19T16:15:59;41.60;27.40
298;DHT22;133;49.626;9.680;2022-07-19T16:18:24;41.50;27.10
298;DHT22;133;49.626;9.680;2022-07-19T16:20:50;41.50;27.30
298;DHT22;133;49.626;9.680;2022-07-19T16:23:16;41.20;26.80
298;DHT22;133;49.626;9.680;2022-07-19T16:25:45;41.00;27.20
298;DHT22;133;49.626;9.680;2022-07-19T16:28:11;40.80;27.10
298;DHT22;133;49.626;9.680;2022-07-19T16:30:37;40.70;27.20
298;DHT22;133;49.626;9.680;2022-07-19T16:33:03;40.60;27.40
298;DHT22;133;49.626;9.680;2022-07-19T16:35:29;40.50;27.00
298;DHT22;133;49.626;9.680;2022-07-19T16:37:54;40.40;27.40
298;DHT22;133;49.626;9.680;2022-07-19T16:40:20;40.30;27.50
298;DHT22;133;49.626;9.680;2022-07-19T16:42:46;40.30;27.60
298;DHT22;133;49.626;9.680;2022-07-19T16:45:12;40.10;27.50
298;DHT22;133;49.626;9.680;2022-07-19T16:47:37;40.20;28.00
298;DHT22;133;49.626;9.680;2022-07-19T16:50:04;40.20;28.00
298;DHT22;133;49.626;9.680;2022-07-19T16:52:31;40.20;28.40
298;DHT22;133;49.626;9.680;2022-07-19T16:54:56;40.10;28.10
298;DHT22;133;49.626;9.680;2022-07-19T16:57:22;39.90;28.20